Terminal Aerodrome Forecast
Issued by NWS

Home | Current Version | Previous Version | Text Only | Print | Product List | Glossary On
Versions: 1 2 3 4 5 6 7 8 9 10 11 12 13
000
FTUS46 KLOX 242300
TAFVNY
TAF
KVNY 242337Z 2500/2524 14009KT P6SM FEW250
     FM250300 12005KT P6SM SCT250
     FM250700 VRB03KT P6SM SCT250
     FM252000 14009KT P6SM SCT250=

USA.gov is the U.S. government's official web portal to all federal, state and local government web resources and services.